Flight Track Log - Related Links

Times and Time Zones

All times are in EST time to prevent confusion due to time zone crossing. See the N45BB flight status page for this flight to view local times or setup timezone preferences in your user account.


Time Position Orientation Groundspeed Altitude Reporting Facility
EST Latitude Longitude Course Direction KTS MPH feet Rate Location/Type
Sat 02:47:39 PM 34.7000 -83.0306 299° West 141 162 4,400  Level Atlanta Center
Sat 02:48:39 PM 34.7211 -83.0683 304° West 141 162 5,200 850 Climbing Atlanta Center
Sat 02:49:39 PM 34.7464 -83.1008 313° West 136 157 6,100 850 Climbing Atlanta Center
Sat 02:50:39 PM 34.7656 -83.1411 300° West 136 157 6,900 850 Climbing Atlanta Center
Sat 02:51:39 PM 34.7867 -83.1814 303° West 136 157 7,800 950 Climbing Atlanta Center
Sat 02:52:00 PM 34.8125 -83.1626 299° West  Level Estimated
Sat 02:52:39 PM 34.8100 -83.2217 305° West 141 162 8,800  Level Atlanta Center
Sat 02:53:39 PM 34.8333 -83.2644 304° West 146 168 9,500 750 Climbing Atlanta Center
Sat 02:54:39 PM 34.8628 -83.3047 312° West 156 180 10,300 900 Climbing Atlanta Center
Sat 02:55:39 PM 34.8964 -83.3372 322° Northwest 156 180 11,300 900 Climbing Atlanta Center
Sat 02:56:39 PM 34.9278 -83.3675 322° Northwest 151 174 12,100 850 Climbing Atlanta Center
Sat 02:57:39 PM 34.9531 -83.4078 307° West 146 168 13,000 800 Climbing Atlanta Center
Sat 02:58:39 PM 34.9822 -83.4353 322° Northwest 146 168 13,700 700 Climbing Atlanta Center
Sat 02:59:39 PM 35.0117 -83.4733 313° West 146 168 14,400 650 Climbing Atlanta Center
Sat 03:00:39 PM 35.0433 -83.5061 320° Northwest 151 174 15,000 700 Climbing Atlanta Center
Sat 03:01:39 PM 35.0747 -83.5414 317° Northwest 151 174 15,800 700 Climbing Atlanta Center
Sat 03:02:39 PM 35.1103 -83.5767 321° Northwest 151 174 16,400 450 Climbing Atlanta Center
Sat 03:03:39 PM 35.1481 -83.6144 321° Northwest 156 180 16,700 600 Climbing Atlanta Center
Sat 03:04:39 PM 35.1814 -83.6550 315° West 162 186 17,600 550 Climbing Atlanta Center
Sat 03:05:39 PM 35.2108 -83.6931 313° West 167 192 17,800 200 Climbing Atlanta Center
Sat 03:06:39 PM 35.2381 -83.7386 306° West 167 192 18,000 100 Climbing Atlanta Center
Sat 03:07:39 PM 35.2653 -83.7869 305° West 167 192 18,000  Level Atlanta Center
Sat 03:08:39 PM 35.2883 -83.8403 298° West 178 205 18,000  Level Atlanta Center
Sat 03:09:39 PM 35.3133 -83.8936 300° West 178 205 18,000  Level Atlanta Center
Sat 03:10:39 PM 35.3406 -83.9497 301° West 178 205 18,000  Level Atlanta Center
Sat 03:11:39 PM 35.3656 -84.0031 300° West 178 205 18,000 -50 Level Atlanta Center
Sat 03:12:39 PM 35.3886 -84.0567 298° West 178 205 17,900  Descending Atlanta Center
Sat 03:13:39 PM 35.4136 -84.1100 300° West 178 205 18,000 50 Climbing Atlanta Center
Sat 03:14:39 PM 35.4386 -84.1636 300° West 178 205 18,000  Level Atlanta Center
Sat 03:15:39 PM 35.4617 -84.2172 298° West 178 205 18,000  Level Atlanta Center
Sat 03:16:39 PM 35.4803 -84.2758 291° West 178 205 18,000  Level Atlanta Center
Sat 03:17:39 PM 35.4947 -84.3319 288° West 178 205 18,000 -50 Level Atlanta Center
Sat 03:18:39 PM 35.5092 -84.3858 288° West 173 199 17,900 -150 Descending Atlanta Center
Sat 03:19:39 PM 35.5297 -84.4469 292° West 173 199 17,700 -200 Descending Atlanta Center
Sat 03:20:39 PM 35.5567 -84.5058 299° West 184 212 17,500 -300 Descending Atlanta Center
Sat 03:21:39 PM 35.5836 -84.5675 298° West 201 231 17,100 -400 Descending Atlanta Center
Sat 03:22:39 PM 35.6125 -84.6236 302° West 201 231 16,700 -400 Descending Atlanta Center
Sat 03:23:39 PM 35.6372 -84.6853 296° West 201 231 16,300 -400 Descending Atlanta Center
Sat 03:24:39 PM 35.6642 -84.7442 299° West 201 231 15,900 -500 Descending Atlanta Center
Sat 03:25:39 PM 35.6908 -84.8083 297° West 201 231 15,300 -600 Descending Atlanta Center
Sat 03:26:39 PM 35.7197 -84.8700 300° West 201 231 14,700 -500 Descending Atlanta Center
Sat 03:27:39 PM 35.7483 -84.9317 300° West 206 237 14,300 -426 Descending Atlanta Center
Sat 03:29:14 PM 35.7931 -85.0294 299° West 201 231 13,600 -420 Descending Memphis Center
Sat 03:30:16 PM 35.8106 -85.0908 289° West 191 220 13,200 -339 Descending Memphis Center
Sat 03:31:18 PM 35.8242 -85.1539 285° West 189 217 12,900 -290 Descending Memphis Center
Sat 03:32:20 PM 35.8389 -85.2144 287° West 186 214 12,600 -242 Descending Memphis Center
Sat 03:33:22 PM 35.8550 -85.2731 289° West 182 209 12,400 -532 Descending Memphis Center
Sat 03:34:24 PM 35.8717 -85.3364 288° West 193 222 11,500 -726 Descending Memphis Center
Sat 03:35:26 PM 35.8958 -85.4142 291° West 202 232 10,900 -532 Descending Memphis Center
Sat 03:36:28 PM 35.9161 -85.4767 292° West 198 228 10,400 -677 Descending Memphis Center
Sat 03:37:30 PM 35.9322 -85.5456 286° West 205 236 9,500 -726 Descending Memphis Center
Sat 03:38:32 PM 35.9517 -85.6156 289° West 213 245 8,900 -537 Descending Memphis Center
Sat 03:39:33 PM 35.9708 -85.6828 289° West 210 242 8,400 -439 Descending Memphis Center
Sat 03:40:35 PM 35.9875 -85.7528 286° West 211 243 8,000 -387 Descending Memphis Center
Sat 03:41:37 PM 36.0092 -85.8358 288° West 212 244 7,600 -290 Descending Memphis Center
Sat 03:42:39 PM 36.0272 -85.9019 289° West 208 239 7,400 -435 Descending Memphis Center
Sat 03:43:41 PM 36.0467 -85.9703 289° West 208 239 6,700 -677 Descending Memphis Center
Sat 03:44:43 PM 36.0683 -86.0397 291° West 214 246 6,000 -629 Descending Memphis Center
Sat 03:45:45 PM 36.0867 -86.1094 288° West 213 245 5,400 -581 Descending Memphis Center
Sat 03:46:47 PM 36.1050 -86.1778 288° West 208 239 4,800 -585 Descending Memphis Center
Sat 03:47:48 PM 36.1125 -86.2450 278° West 199 229 4,200 -537 Descending Memphis Center
Sat 03:48:50 PM 36.0994 -86.3094 256° West 193 222 3,700 -581 Descending Memphis Center
Sat 03:49:52 PM 36.1181 -86.3747 289° West 197 227 3,000 -290 Descending Memphis Center
Sat 03:50:54 PM 36.1722 -86.3778 357° North 194 223 3,100  Climbing Memphis Center
Sat 03:51:56 PM 36.2200 -86.3750 North 196 226 3,000 -97 Descending Memphis Center

Login

Don't have an account? Register now (free) for customized features, flight alerts, and more!